sensor_id;sensor_type;location;lat;lon;timestamp;P1;durP1;ratioP1;P2;durP2;ratioP2
8088;SDS011;57635;49.194;12.104;2023-04-08T00:00:18;8.73;;;8.03;;
8088;SDS011;57635;49.194;12.104;2023-04-08T00:02:46;9.93;;;7.87;;
8088;SDS011;57635;49.194;12.104;2023-04-08T00:05:15;8.43;;;7.63;;
8088;SDS011;57635;49.194;12.104;2023-04-08T00:07:42;9.20;;;8.27;;
8088;SDS011;57635;49.194;12.104;2023-04-08T00:10:10;9.93;;;9.07;;
8088;SDS011;57635;49.194;12.104;2023-04-08T00:12:38;9.43;;;8.53;;
8088;SDS011;57635;49.194;12.104;2023-04-08T00:15:06;8.27;;;7.67;;
8088;SDS011;57635;49.194;12.104;2023-04-08T00:17:34;10.03;;;9.10;;
8088;SDS011;57635;49.194;12.104;2023-04-08T00:20:02;9.97;;;8.50;;
8088;SDS011;57635;49.194;12.104;2023-04-08T00:22:32;11.00;;;10.00;;
8088;SDS011;57635;49.194;12.104;2023-04-08T00:24:59;10.73;;;9.63;;
8088;SDS011;57635;49.194;12.104;2023-04-08T00:27:28;10.10;;;9.20;;
8088;SDS011;57635;49.194;12.104;2023-04-08T00:29:55;9.37;;;8.57;;
8088;SDS011;57635;49.194;12.104;2023-04-08T00:32:25;9.23;;;8.43;;
8088;SDS011;57635;49.194;12.104;2023-04-08T00:34:53;10.17;;;9.27;;
8088;SDS011;57635;49.194;12.104;2023-04-08T00:37:21;13.83;;;12.40;;
8088;SDS011;57635;49.194;12.104;2023-04-08T00:39:51;12.60;;;11.40;;
8088;SDS011;57635;49.194;12.104;2023-04-08T00:42:19;12.30;;;11.10;;
8088;SDS011;57635;49.194;12.104;2023-04-08T00:44:47;11.37;;;10.30;;
8088;SDS011;57635;49.194;12.104;2023-04-08T00:47:15;10.93;;;8.57;;
8088;SDS011;57635;49.194;12.104;2023-04-08T00:49:42;10.20;;;9.23;;
8088;SDS011;57635;49.194;12.104;2023-04-08T00:52:10;10.13;;;9.13;;
8088;SDS011;57635;49.194;12.104;2023-04-08T00:54:38;9.73;;;8.90;;
8088;SDS011;57635;49.194;12.104;2023-04-08T00:57:07;8.80;;;8.00;;
8088;SDS011;57635;49.194;12.104;2023-04-08T00:59:35;8.73;;;8.03;;
8088;SDS011;57635;49.194;12.104;2023-04-08T01:02:06;9.27;;;8.50;;
8088;SDS011;57635;49.194;12.104;2023-04-08T01:04:39;8.97;;;8.17;;
8088;SDS011;57635;49.194;12.104;2023-04-08T01:07:12;9.63;;;8.83;;
8088;SDS011;57635;49.194;12.104;2023-04-08T01:09:43;9.13;;;8.33;;
8088;SDS011;57635;49.194;12.104;2023-04-08T01:12:15;9.87;;;8.93;;
8088;SDS011;57635;49.194;12.104;2023-04-08T01:14:44;9.20;;;8.43;;
8088;SDS011;57635;49.194;12.104;2023-04-08T01:17:13;10.13;;;9.30;;
8088;SDS011;57635;49.194;12.104;2023-04-08T01:19:41;10.27;;;9.37;;
8088;SDS011;57635;49.194;12.104;2023-04-08T01:22:11;10.03;;;9.03;;
8088;SDS011;57635;49.194;12.104;2023-04-08T01:24:43;10.63;;;9.50;;
8088;SDS011;57635;49.194;12.104;2023-04-08T01:27:13;10.60;;;9.70;;
8088;SDS011;57635;49.194;12.104;2023-04-08T01:29:41;9.60;;;8.80;;
8088;SDS011;57635;49.194;12.104;2023-04-08T01:32:09;9.77;;;8.97;;
8088;SDS011;57635;49.194;12.104;2023-04-08T01:34:38;10.03;;;9.10;;
8088;SDS011;57635;49.194;12.104;2023-04-08T01:37:07;9.30;;;8.50;;
8088;SDS011;57635;49.194;12.104;2023-04-08T01:39:35;9.87;;;9.00;;
8088;SDS011;57635;49.194;12.104;2023-04-08T01:42:03;9.80;;;8.90;;
8088;SDS011;57635;49.194;12.104;2023-04-08T01:44:32;9.37;;;8.57;;
8088;SDS011;57635;49.194;12.104;2023-04-08T01:47:01;9.87;;;9.10;;
8088;SDS011;57635;49.194;12.104;2023-04-08T01:49:29;9.10;;;8.30;;
8088;SDS011;57635;49.194;12.104;2023-04-08T01:51:57;10.13;;;9.27;;
8088;SDS011;57635;49.194;12.104;2023-04-08T01:54:26;9.40;;;8.60;;
8088;SDS011;57635;49.194;12.104;2023-04-08T01:56:54;10.37;;;9.47;;
8088;SDS011;57635;49.194;12.104;2023-04-08T01:59:23;9.93;;;8.93;;
8088;SDS011;57635;49.194;12.104;2023-04-08T02:01:57;9.90;;;9.03;;
8088;SDS011;57635;49.194;12.104;2023-04-08T02:04:25;10.40;;;9.40;;
8088;SDS011;57635;49.194;12.104;2023-04-08T02:06:54;10.23;;;9.23;;
8088;SDS011;57635;49.194;12.104;2023-04-08T02:09:22;10.10;;;9.13;;
8088;SDS011;57635;49.194;12.104;2023-04-08T02:11:51;9.73;;;9.03;;
8088;SDS011;57635;49.194;12.104;2023-04-08T02:14:19;10.03;;;9.03;;
8088;SDS011;57635;49.194;12.104;2023-04-08T02:16:49;9.93;;;9.03;;
8088;SDS011;57635;49.194;12.104;2023-04-08T02:19:23;12.33;;;9.20;;
8088;SDS011;57635;49.194;12.104;2023-04-08T02:21:54;10.43;;;9.53;;
8088;SDS011;57635;49.194;12.104;2023-04-08T02:24:23;9.70;;;8.70;;
8088;SDS011;57635;49.194;12.104;2023-04-08T02:26:52;9.87;;;8.93;;
8088;SDS011;57635;49.194;12.104;2023-04-08T02:29:21;8.93;;;8.10;;
8088;SDS011;57635;49.194;12.104;2023-04-08T02:31:50;9.10;;;8.40;;
8088;SDS011;57635;49.194;12.104;2023-04-08T02:34:18;10.93;;;9.60;;
8088;SDS011;57635;49.194;12.104;2023-04-08T02:36:49;8.80;;;8.03;;
8088;SDS011;57635;49.194;12.104;2023-04-08T02:39:17;10.00;;;9.23;;
8088;SDS011;57635;49.194;12.104;2023-04-08T02:41:47;9.37;;;8.57;;
8088;SDS011;57635;49.194;12.104;2023-04-08T02:44:15;8.97;;;8.17;;
8088;SDS011;57635;49.194;12.104;2023-04-08T02:46:42;9.77;;;8.87;;
8088;SDS011;57635;49.194;12.104;2023-04-08T02:49:10;10.50;;;8.27;;
8088;SDS011;57635;49.194;12.104;2023-04-08T02:51:38;9.37;;;8.60;;
8088;SDS011;57635;49.194;12.104;2023-04-08T02:54:07;10.10;;;9.07;;
8088;SDS011;57635;49.194;12.104;2023-04-08T02:56:35;9.77;;;8.77;;
8088;SDS011;57635;49.194;12.104;2023-04-08T02:59:02;8.83;;;7.93;;
8088;SDS011;57635;49.194;12.104;2023-04-08T03:01:30;9.70;;;8.90;;
8088;SDS011;57635;49.194;12.104;2023-04-08T03:03:58;9.47;;;8.57;;
8088;SDS011;57635;49.194;12.104;2023-04-08T03:06:25;9.57;;;8.77;;
8088;SDS011;57635;49.194;12.104;2023-04-08T03:08:53;10.63;;;8.57;;
8088;SDS011;57635;49.194;12.104;2023-04-08T03:11:22;9.50;;;8.70;;
8088;SDS011;57635;49.194;12.104;2023-04-08T03:13:50;9.77;;;8.83;;
8088;SDS011;57635;49.194;12.104;2023-04-08T03:16:17;9.10;;;8.37;;
8088;SDS011;57635;49.194;12.104;2023-04-08T03:18:45;10.17;;;9.17;;
8088;SDS011;57635;49.194;12.104;2023-04-08T03:21:12;10.03;;;9.13;;
8088;SDS011;57635;49.194;12.104;2023-04-08T03:23:41;10.07;;;9.27;;
8088;SDS011;57635;49.194;12.104;2023-04-08T03:26:08;10.33;;;9.37;;
8088;SDS011;57635;49.194;12.104;2023-04-08T03:28:37;9.37;;;8.57;;
8088;SDS011;57635;49.194;12.104;2023-04-08T03:31:05;9.33;;;8.53;;
8088;SDS011;57635;49.194;12.104;2023-04-08T03:33:33;8.67;;;7.97;;
8088;SDS011;57635;49.194;12.104;2023-04-08T03:36:01;10.67;;;9.60;;
8088;SDS011;57635;49.194;12.104;2023-04-08T03:38:29;11.93;;;10.77;;
8088;SDS011;57635;49.194;12.104;2023-04-08T03:40:57;11.27;;;10.13;;
8088;SDS011;57635;49.194;12.104;2023-04-08T03:43:25;9.53;;;8.73;;
8088;SDS011;57635;49.194;12.104;2023-04-08T03:45:54;10.57;;;9.60;;
8088;SDS011;57635;49.194;12.104;2023-04-08T03:48:22;10.67;;;9.67;;
8088;SDS011;57635;49.194;12.104;2023-04-08T03:50:50;9.80;;;8.83;;
8088;SDS011;57635;49.194;12.104;2023-04-08T03:53:18;10.33;;;9.53;;
8088;SDS011;57635;49.194;12.104;2023-04-08T03:55:47;11.47;;;10.53;;
8088;SDS011;57635;49.194;12.104;2023-04-08T03:58:15;11.23;;;10.30;;
8088;SDS011;57635;49.194;12.104;2023-04-08T04:00:44;11.27;;;10.27;;
8088;SDS011;57635;49.194;12.104;2023-04-08T04:03:13;10.57;;;9.47;;
8088;SDS011;57635;49.194;12.104;2023-04-08T04:05:41;10.27;;;9.47;;
8088;SDS011;57635;49.194;12.104;2023-04-08T04:08:09;14.50;;;10.33;;
8088;SDS011;57635;49.194;12.104;2023-04-08T04:10:37;9.97;;;9.07;;
8088;SDS011;57635;49.194;12.104;2023-04-08T04:13:05;10.37;;;9.43;;
8088;SDS011;57635;49.194;12.104;2023-04-08T04:15:34;10.23;;;9.27;;
8088;SDS011;57635;49.194;12.104;2023-04-08T04:18:04;10.37;;;9.47;;
8088;SDS011;57635;49.194;12.104;2023-04-08T04:20:34;10.73;;;9.80;;
8088;SDS011;57635;49.194;12.104;2023-04-08T04:23:03;10.87;;;9.83;;
8088;SDS011;57635;49.194;12.104;2023-04-08T04:25:30;10.47;;;9.57;;
8088;SDS011;57635;49.194;12.104;2023-04-08T04:27:58;10.70;;;8.97;;
8088;SDS011;57635;49.194;12.104;2023-04-08T04:30:27;10.90;;;10.00;;
8088;SDS011;57635;49.194;12.104;2023-04-08T04:32:54;10.37;;;9.47;;
8088;SDS011;57635;49.194;12.104;2023-04-08T04:35:22;9.80;;;9.00;;
8088;SDS011;57635;49.194;12.104;2023-04-08T04:37:51;10.40;;;9.40;;
8088;SDS011;57635;49.194;12.104;2023-04-08T04:40:19;13.03;;;9.63;;
8088;SDS011;57635;49.194;12.104;2023-04-08T04:42:47;9.70;;;8.90;;
8088;SDS011;57635;49.194;12.104;2023-04-08T04:45:15;9.03;;;8.17;;
8088;SDS011;57635;49.194;12.104;2023-04-08T04:47:42;10.30;;;9.43;;
8088;SDS011;57635;49.194;12.104;2023-04-08T04:50:10;10.53;;;9.57;;
8088;SDS011;57635;49.194;12.104;2023-04-08T04:52:38;10.83;;;9.50;;
8088;SDS011;57635;49.194;12.104;2023-04-08T04:55:08;9.93;;;9.00;;
8088;SDS011;57635;49.194;12.104;2023-04-08T04:57:36;9.77;;;8.97;;
8088;SDS011;57635;49.194;12.104;2023-04-08T05:00:04;9.90;;;9.00;;
8088;SDS011;57635;49.194;12.104;2023-04-08T05:02:33;11.57;;;9.27;;
8088;SDS011;57635;49.194;12.104;2023-04-08T05:05:01;10.03;;;9.13;;
8088;SDS011;57635;49.194;12.104;2023-04-08T05:07:29;10.03;;;9.23;;
8088;SDS011;57635;49.194;12.104;2023-04-08T05:09:57;11.23;;;9.93;;
8088;SDS011;57635;49.194;12.104;2023-04-08T05:12:26;10.70;;;9.70;;
8088;SDS011;57635;49.194;12.104;2023-04-08T05:14:54;11.83;;;10.73;;
8088;SDS011;57635;49.194;12.104;2023-04-08T05:17:22;11.90;;;10.80;;
8088;SDS011;57635;49.194;12.104;2023-04-08T05:19:49;10.53;;;9.50;;
8088;SDS011;57635;49.194;12.104;2023-04-08T05:22:17;10.40;;;9.43;;
8088;SDS011;57635;49.194;12.104;2023-04-08T05:24:44;10.07;;;9.17;;
8088;SDS011;57635;49.194;12.104;2023-04-08T05:27:12;10.77;;;9.73;;
8088;SDS011;57635;49.194;12.104;2023-04-08T05:29:41;11.23;;;9.97;;
8088;SDS011;57635;49.194;12.104;2023-04-08T05:32:09;10.43;;;9.43;;
8088;SDS011;57635;49.194;12.104;2023-04-08T05:34:37;10.40;;;9.43;;
8088;SDS011;57635;49.194;12.104;2023-04-08T05:37:04;9.97;;;9.17;;
8088;SDS011;57635;49.194;12.104;2023-04-08T05:39:32;10.23;;;9.27;;
8088;SDS011;57635;49.194;12.104;2023-04-08T05:41:59;10.00;;;9.20;;
8088;SDS011;57635;49.194;12.104;2023-04-08T05:44:27;10.30;;;9.40;;
8088;SDS011;57635;49.194;12.104;2023-04-08T05:46:56;10.57;;;9.63;;
8088;SDS011;57635;49.194;12.104;2023-04-08T05:49:25;9.50;;;8.63;;
8088;SDS011;57635;49.194;12.104;2023-04-08T05:51:53;11.30;;;10.17;;
8088;SDS011;57635;49.194;12.104;2023-04-08T05:54:21;11.00;;;9.77;;
8088;SDS011;57635;49.194;12.104;2023-04-08T05:56:48;10.63;;;9.73;;
8088;SDS011;57635;49.194;12.104;2023-04-08T05:59:16;11.10;;;10.13;;
8088;SDS011;57635;49.194;12.104;2023-04-08T06:01:44;11.63;;;10.43;;
8088;SDS011;57635;49.194;12.104;2023-04-08T06:04:13;10.53;;;9.50;;
8088;SDS011;57635;49.194;12.104;2023-04-08T06:06:42;11.33;;;10.23;;
8088;SDS011;57635;49.194;12.104;2023-04-08T06:09:10;11.17;;;10.03;;
8088;SDS011;57635;49.194;12.104;2023-04-08T06:11:38;10.40;;;9.60;;
8088;SDS011;57635;49.194;12.104;2023-04-08T06:14:06;11.80;;;10.60;;
8088;SDS011;57635;49.194;12.104;2023-04-08T06:16:34;11.40;;;10.40;;
8088;SDS011;57635;49.194;12.104;2023-04-08T06:19:04;10.53;;;9.63;;
8088;SDS011;57635;49.194;12.104;2023-04-08T06:21:36;10.07;;;9.20;;
8088;SDS011;57635;49.194;12.104;2023-04-08T06:24:04;9.83;;;8.93;;
8088;SDS011;57635;49.194;12.104;2023-04-08T06:26:32;9.53;;;8.73;;
8088;SDS011;57635;49.194;12.104;2023-04-08T06:29:00;9.43;;;8.63;;
8088;SDS011;57635;49.194;12.104;2023-04-08T06:31:28;10.10;;;9.30;;
8088;SDS011;57635;49.194;12.104;2023-04-08T06:33:56;11.10;;;10.10;;
8088;SDS011;57635;49.194;12.104;2023-04-08T06:36:24;10.30;;;9.40;;
8088;SDS011;57635;49.194;12.104;2023-04-08T06:38:54;11.13;;;10.13;;
8088;SDS011;57635;49.194;12.104;2023-04-08T06:41:22;9.70;;;8.90;;
8088;SDS011;57635;49.194;12.104;2023-04-08T06:43:49;9.50;;;8.60;;
8088;SDS011;57635;49.194;12.104;2023-04-08T06:46:17;9.20;;;8.40;;
8088;SDS011;57635;49.194;12.104;2023-04-08T06:48:45;10.33;;;9.43;;
8088;SDS011;57635;49.194;12.104;2023-04-08T06:51:12;10.00;;;8.90;;
8088;SDS011;57635;49.194;12.104;2023-04-08T06:53:40;9.30;;;8.50;;
8088;SDS011;57635;49.194;12.104;2023-04-08T06:56:09;9.67;;;8.87;;
8088;SDS011;57635;49.194;12.104;2023-04-08T06:58:36;8.43;;;7.73;;
8088;SDS011;57635;49.194;12.104;2023-04-08T07:01:04;9.77;;;8.87;;
8088;SDS011;57635;49.194;12.104;2023-04-08T07:03:32;8.83;;;8.13;;
8088;SDS011;57635;49.194;12.104;2023-04-08T07:06:00;8.70;;;7.93;;
8088;SDS011;57635;49.194;12.104;2023-04-08T07:08:29;8.90;;;8.10;;
8088;SDS011;57635;49.194;12.104;2023-04-08T07:10:57;8.73;;;8.03;;
8088;SDS011;57635;49.194;12.104;2023-04-08T07:13:26;9.43;;;8.73;;
8088;SDS011;57635;49.194;12.104;2023-04-08T07:15:54;8.63;;;7.93;;
8088;SDS011;57635;49.194;12.104;2023-04-08T07:18:22;8.30;;;7.67;;
8088;SDS011;57635;49.194;12.104;2023-04-08T07:20:51;8.07;;;7.40;;
8088;SDS011;57635;49.194;12.104;2023-04-08T07:23:19;7.53;;;7.03;;
8088;SDS011;57635;49.194;12.104;2023-04-08T07:25:47;7.80;;;7.10;;
8088;SDS011;57635;49.194;12.104;2023-04-08T07:28:15;7.63;;;7.03;;
8088;SDS011;57635;49.194;12.104;2023-04-08T07:30:44;8.07;;;7.40;;
8088;SDS011;57635;49.194;12.104;2023-04-08T07:33:12;8.77;;;8.07;;
8088;SDS011;57635;49.194;12.104;2023-04-08T07:35:41;8.00;;;7.33;;
8088;SDS011;57635;49.194;12.104;2023-04-08T07:38:08;7.53;;;6.87;;
8088;SDS011;57635;49.194;12.104;2023-04-08T07:40:37;7.03;;;6.53;;
8088;SDS011;57635;49.194;12.104;2023-04-08T07:43:04;7.20;;;6.60;;
8088;SDS011;57635;49.194;12.104;2023-04-08T07:45:34;8.80;;;7.97;;
8088;SDS011;57635;49.194;12.104;2023-04-08T07:48:03;7.03;;;6.47;;
8088;SDS011;57635;49.194;12.104;2023-04-08T07:50:31;7.67;;;7.07;;
8088;SDS011;57635;49.194;12.104;2023-04-08T07:52:58;7.37;;;6.70;;
8088;SDS011;57635;49.194;12.104;2023-04-08T07:55:26;7.27;;;6.77;;
8088;SDS011;57635;49.194;12.104;2023-04-08T07:57:54;7.33;;;6.83;;
8088;SDS011;57635;49.194;12.104;2023-04-08T08:00:21;6.93;;;6.43;;
8088;SDS011;57635;49.194;12.104;2023-04-08T08:02:49;7.70;;;7.10;;
8088;SDS011;57635;49.194;12.104;2023-04-08T08:05:19;7.00;;;6.50;;
8088;SDS011;57635;49.194;12.104;2023-04-08T08:07:47;6.23;;;5.73;;
8088;SDS011;57635;49.194;12.104;2023-04-08T08:10:15;7.83;;;7.07;;
8088;SDS011;57635;49.194;12.104;2023-04-08T08:12:43;8.70;;;7.90;;
8088;SDS011;57635;49.194;12.104;2023-04-08T08:15:10;7.37;;;6.80;;
8088;SDS011;57635;49.194;12.104;2023-04-08T08:17:38;6.90;;;6.40;;
8088;SDS011;57635;49.194;12.104;2023-04-08T08:20:06;7.33;;;6.80;;
8088;SDS011;57635;49.194;12.104;2023-04-08T08:22:37;7.60;;;7.00;;
8088;SDS011;57635;49.194;12.104;2023-04-08T08:25:22;7.70;;;7.10;;
8088;SDS011;57635;49.194;12.104;2023-04-08T08:27:51;6.73;;;6.23;;
8088;SDS011;57635;49.194;12.104;2023-04-08T08:30:20;8.50;;;7.80;;
8088;SDS011;57635;49.194;12.104;2023-04-08T08:32:48;7.10;;;6.60;;
8088;SDS011;57635;49.194;12.104;2023-04-08T08:35:17;7.73;;;7.13;;
8088;SDS011;57635;49.194;12.104;2023-04-08T08:37:46;7.13;;;6.53;;
8088;SDS011;57635;49.194;12.104;2023-04-08T08:40:14;7.50;;;6.90;;
8088;SDS011;57635;49.194;12.104;2023-04-08T08:42:42;7.17;;;6.57;;
8088;SDS011;57635;49.194;12.104;2023-04-08T08:45:16;7.90;;;7.30;;
8088;SDS011;57635;49.194;12.104;2023-04-08T08:47:44;7.97;;;7.27;;
8088;SDS011;57635;49.194;12.104;2023-04-08T08:50:16;7.23;;;6.70;;
8088;SDS011;57635;49.194;12.104;2023-04-08T08:52:48;8.30;;;7.53;;
8088;SDS011;57635;49.194;12.104;2023-04-08T08:55:17;8.07;;;7.47;;
8088;SDS011;57635;49.194;12.104;2023-04-08T08:58:05;7.57;;;6.87;;
8088;SDS011;57635;49.194;12.104;2023-04-08T09:00:34;7.83;;;7.23;;
8088;SDS011;57635;49.194;12.104;2023-04-08T09:03:15;7.13;;;6.53;;
8088;SDS011;57635;49.194;12.104;2023-04-08T09:05:47;7.93;;;7.30;;
8088;SDS011;57635;49.194;12.104;2023-04-08T09:08:24;7.23;;;6.57;;
8088;SDS011;57635;49.194;12.104;2023-04-08T09:10:52;7.67;;;7.00;;
8088;SDS011;57635;49.194;12.104;2023-04-08T09:13:20;8.47;;;6.63;;
8088;SDS011;57635;49.194;12.104;2023-04-08T09:16:01;7.13;;;6.60;;
8088;SDS011;57635;49.194;12.104;2023-04-08T09:18:30;7.20;;;6.60;;
8088;SDS011;57635;49.194;12.104;2023-04-08T09:20:58;6.73;;;6.23;;
8088;SDS011;57635;49.194;12.104;2023-04-08T09:23:38;11.20;;;7.03;;
8088;SDS011;57635;49.194;12.104;2023-04-08T09:26:07;7.57;;;6.97;;
8088;SDS011;57635;49.194;12.104;2023-04-08T09:28:36;6.83;;;6.33;;
8088;SDS011;57635;49.194;12.104;2023-04-08T09:33:47;6.80;;;6.20;;
8088;SDS011;57635;49.194;12.104;2023-04-08T09:36:15;7.13;;;6.43;;
8088;SDS011;57635;49.194;12.104;2023-04-08T09:38:45;7.10;;;6.50;;
8088;SDS011;57635;49.194;12.104;2023-04-08T09:41:13;6.57;;;6.00;;
8088;SDS011;57635;49.194;12.104;2023-04-08T09:43:42;6.30;;;5.90;;
8088;SDS011;57635;49.194;12.104;2023-04-08T09:46:15;7.00;;;6.50;;
8088;SDS011;57635;49.194;12.104;2023-04-08T09:51:31;6.87;;;6.27;;
8088;SDS011;57635;49.194;12.104;2023-04-08T09:54:02;6.17;;;5.67;;
8088;SDS011;57635;49.194;12.104;2023-04-08T09:56:34;6.50;;;6.10;;
8088;SDS011;57635;49.194;12.104;2023-04-08T09:59:08;7.30;;;6.60;;
8088;SDS011;57635;49.194;12.104;2023-04-08T10:01:37;6.13;;;5.63;;
8088;SDS011;57635;49.194;12.104;2023-04-08T10:04:07;5.20;;;4.80;;
8088;SDS011;57635;49.194;12.104;2023-04-08T10:06:36;6.40;;;5.80;;
8088;SDS011;57635;49.194;12.104;2023-04-08T10:09:06;6.13;;;5.63;;
8088;SDS011;57635;49.194;12.104;2023-04-08T10:11:33;5.40;;;5.10;;
8088;SDS011;57635;49.194;12.104;2023-04-08T10:14:02;5.93;;;5.43;;
8088;SDS011;57635;49.194;12.104;2023-04-08T10:16:30;5.43;;;5.13;;
8088;SDS011;57635;49.194;12.104;2023-04-08T10:18:57;5.57;;;5.20;;
8088;SDS011;57635;49.194;12.104;2023-04-08T10:21:35;5.50;;;5.20;;
8088;SDS011;57635;49.194;12.104;2023-04-08T10:24:09;4.70;;;4.43;;
8088;SDS011;57635;49.194;12.104;2023-04-08T10:26:38;5.00;;;4.70;;
8088;SDS011;57635;49.194;12.104;2023-04-08T10:31:59;5.63;;;5.23;;
8088;SDS011;57635;49.194;12.104;2023-04-08T10:34:28;6.23;;;5.73;;
8088;SDS011;57635;49.194;12.104;2023-04-08T10:36:56;5.10;;;4.80;;
8088;SDS011;57635;49.194;12.104;2023-04-08T10:39:29;6.20;;;5.33;;
8088;SDS011;57635;49.194;12.104;2023-04-08T10:41:57;5.63;;;5.23;;
8088;SDS011;57635;49.194;12.104;2023-04-08T10:44:27;5.50;;;5.07;;
8088;SDS011;57635;49.194;12.104;2023-04-08T10:46:55;6.27;;;5.87;;
8088;SDS011;57635;49.194;12.104;2023-04-08T10:49:23;6.97;;;6.47;;
8088;SDS011;57635;49.194;12.104;2023-04-08T10:51:59;6.50;;;5.80;;
8088;SDS011;57635;49.194;12.104;2023-04-08T10:54:28;4.93;;;4.63;;
8088;SDS011;57635;49.194;12.104;2023-04-08T10:56:56;5.20;;;4.90;;
8088;SDS011;57635;49.194;12.104;2023-04-08T10:59:28;5.70;;;5.30;;
8088;SDS011;57635;49.194;12.104;2023-04-08T11:01:57;6.33;;;5.83;;
8088;SDS011;57635;49.194;12.104;2023-04-08T11:04:25;5.87;;;5.47;;
8088;SDS011;57635;49.194;12.104;2023-04-08T11:06:53;5.93;;;5.50;;
8088;SDS011;57635;49.194;12.104;2023-04-08T11:09:21;6.40;;;5.90;;
8088;SDS011;57635;49.194;12.104;2023-04-08T11:11:51;5.03;;;4.73;;
8088;SDS011;57635;49.194;12.104;2023-04-08T11:14:18;5.43;;;5.03;;
8088;SDS011;57635;49.194;12.104;2023-04-08T11:16:47;5.73;;;5.33;;
8088;SDS011;57635;49.194;12.104;2023-04-08T11:19:15;5.73;;;5.43;;
8088;SDS011;57635;49.194;12.104;2023-04-08T11:21:43;5.27;;;4.87;;
8088;SDS011;57635;49.194;12.104;2023-04-08T11:24:11;5.43;;;4.63;;
8088;SDS011;57635;49.194;12.104;2023-04-08T11:26:39;8.10;;;7.40;;
8088;SDS011;57635;49.194;12.104;2023-04-08T11:29:09;6.90;;;6.40;;
8088;SDS011;57635;49.194;12.104;2023-04-08T11:31:39;5.10;;;4.70;;
8088;SDS011;57635;49.194;12.104;2023-04-08T11:34:08;5.30;;;4.93;;
8088;SDS011;57635;49.194;12.104;2023-04-08T11:36:38;5.63;;;5.23;;
8088;SDS011;57635;49.194;12.104;2023-04-08T11:39:07;5.30;;;5.00;;
8088;SDS011;57635;49.194;12.104;2023-04-08T11:41:36;5.10;;;4.70;;
8088;SDS011;57635;49.194;12.104;2023-04-08T11:44:05;5.03;;;4.73;;
8088;SDS011;57635;49.194;12.104;2023-04-08T11:46:34;5.03;;;4.73;;
8088;SDS011;57635;49.194;12.104;2023-04-08T11:49:03;5.33;;;4.93;;
8088;SDS011;57635;49.194;12.104;2023-04-08T11:51:33;4.53;;;4.33;;
8088;SDS011;57635;49.194;12.104;2023-04-08T11:54:03;4.90;;;4.60;;
8088;SDS011;57635;49.194;12.104;2023-04-08T11:56:42;5.80;;;5.30;;
8088;SDS011;57635;49.194;12.104;2023-04-08T11:59:10;4.73;;;4.47;;
8088;SDS011;57635;49.194;12.104;2023-04-08T12:01:39;4.60;;;4.30;;
8088;SDS011;57635;49.194;12.104;2023-04-08T12:04:07;5.13;;;4.80;;
8088;SDS011;57635;49.194;12.104;2023-04-08T12:06:38;5.53;;;5.20;;
8088;SDS011;57635;49.194;12.104;2023-04-08T12:09:08;6.30;;;5.70;;
8088;SDS011;57635;49.194;12.104;2023-04-08T12:11:36;5.23;;;4.83;;
8088;SDS011;57635;49.194;12.104;2023-04-08T12:14:03;5.00;;;4.70;;
8088;SDS011;57635;49.194;12.104;2023-04-08T12:16:31;5.67;;;5.27;;
8088;SDS011;57635;49.194;12.104;2023-04-08T12:19:00;5.33;;;5.00;;
8088;SDS011;57635;49.194;12.104;2023-04-08T12:21:28;5.83;;;5.43;;
8088;SDS011;57635;49.194;12.104;2023-04-08T12:23:55;7.30;;;6.80;;
8088;SDS011;57635;49.194;12.104;2023-04-08T12:26:23;7.20;;;6.70;;
8088;SDS011;57635;49.194;12.104;2023-04-08T12:28:50;5.97;;;5.47;;
8088;SDS011;57635;49.194;12.104;2023-04-08T12:31:18;7.17;;;6.67;;
8088;SDS011;57635;49.194;12.104;2023-04-08T12:33:46;7.27;;;6.63;;
8088;SDS011;57635;49.194;12.104;2023-04-08T12:36:16;6.40;;;5.90;;
8088;SDS011;57635;49.194;12.104;2023-04-08T12:38:43;10.20;;;9.27;;
8088;SDS011;57635;49.194;12.104;2023-04-08T12:41:11;8.97;;;8.07;;
8088;SDS011;57635;49.194;12.104;2023-04-08T12:43:38;7.57;;;6.00;;
8088;SDS011;57635;49.194;12.104;2023-04-08T12:46:06;6.80;;;6.40;;
8088;SDS011;57635;49.194;12.104;2023-04-08T12:48:34;6.13;;;5.63;;
8088;SDS011;57635;49.194;12.104;2023-04-08T12:51:01;5.30;;;4.93;;
8088;SDS011;57635;49.194;12.104;2023-04-08T12:53:30;5.73;;;5.23;;
8088;SDS011;57635;49.194;12.104;2023-04-08T12:55:58;5.67;;;5.27;;
8088;SDS011;57635;49.194;12.104;2023-04-08T12:58:26;6.07;;;5.67;;
8088;SDS011;57635;49.194;12.104;2023-04-08T13:00:53;5.93;;;5.53;;
8088;SDS011;57635;49.194;12.104;2023-04-08T13:03:21;6.10;;;5.70;;
8088;SDS011;57635;49.194;12.104;2023-04-08T13:05:49;6.43;;;5.83;;
8088;SDS011;57635;49.194;12.104;2023-04-08T13:08:17;6.17;;;5.67;;
8088;SDS011;57635;49.194;12.104;2023-04-08T13:10:45;7.00;;;6.50;;
8088;SDS011;57635;49.194;12.104;2023-04-08T13:13:13;6.00;;;5.50;;
8088;SDS011;57635;49.194;12.104;2023-04-08T13:15:41;5.77;;;5.37;;
8088;SDS011;57635;49.194;12.104;2023-04-08T13:18:10;5.20;;;4.80;;
8088;SDS011;57635;49.194;12.104;2023-04-08T13:20:41;6.00;;;5.60;;
8088;SDS011;57635;49.194;12.104;2023-04-08T13:23:09;5.40;;;5.00;;
8088;SDS011;57635;49.194;12.104;2023-04-08T13:25:37;5.37;;;4.97;;
8088;SDS011;57635;49.194;12.104;2023-04-08T13:28:05;5.53;;;5.20;;
8088;SDS011;57635;49.194;12.104;2023-04-08T13:30:35;5.23;;;4.93;;
8088;SDS011;57635;49.194;12.104;2023-04-08T13:33:04;5.80;;;5.10;;
8088;SDS011;57635;49.194;12.104;2023-04-08T13:35:31;8.10;;;6.13;;
8088;SDS011;57635;49.194;12.104;2023-04-08T13:37:59;6.43;;;6.03;;
8088;SDS011;57635;49.194;12.104;2023-04-08T13:40:27;6.27;;;5.87;;
8088;SDS011;57635;49.194;12.104;2023-04-08T13:42:55;6.53;;;6.10;;
8088;SDS011;57635;49.194;12.104;2023-04-08T13:45:24;6.73;;;6.23;;
8088;SDS011;57635;49.194;12.104;2023-04-08T13:47:52;6.37;;;5.97;;
8088;SDS011;57635;49.194;12.104;2023-04-08T13:50:19;6.53;;;6.03;;
8088;SDS011;57635;49.194;12.104;2023-04-08T13:52:47;6.07;;;5.57;;
8088;SDS011;57635;49.194;12.104;2023-04-08T13:55:15;6.40;;;5.90;;
8088;SDS011;57635;49.194;12.104;2023-04-08T13:57:43;5.87;;;5.37;;
8088;SDS011;57635;49.194;12.104;2023-04-08T14:00:11;7.57;;;6.97;;
8088;SDS011;57635;49.194;12.104;2023-04-08T14:02:40;5.57;;;5.17;;
8088;SDS011;57635;49.194;12.104;2023-04-08T14:05:08;5.67;;;5.20;;
8088;SDS011;57635;49.194;12.104;2023-04-08T14:07:36;6.13;;;5.70;;
8088;SDS011;57635;49.194;12.104;2023-04-08T14:10:05;6.20;;;5.80;;
8088;SDS011;57635;49.194;12.104;2023-04-08T14:12:33;6.53;;;6.13;;
8088;SDS011;57635;49.194;12.104;2023-04-08T14:15:01;6.00;;;5.60;;
8088;SDS011;57635;49.194;12.104;2023-04-08T14:17:29;8.70;;;8.00;;
8088;SDS011;57635;49.194;12.104;2023-04-08T14:19:58;8.87;;;8.07;;
8088;SDS011;57635;49.194;12.104;2023-04-08T14:22:26;7.00;;;6.50;;
8088;SDS011;57635;49.194;12.104;2023-04-08T14:24:53;8.43;;;7.83;;
8088;SDS011;57635;49.194;12.104;2023-04-08T14:27:21;7.10;;;6.50;;
8088;SDS011;57635;49.194;12.104;2023-04-08T14:29:49;6.77;;;6.27;;
8088;SDS011;57635;49.194;12.104;2023-04-08T14:32:16;5.40;;;5.10;;
8088;SDS011;57635;49.194;12.104;2023-04-08T14:34:44;5.20;;;4.90;;
8088;SDS011;57635;49.194;12.104;2023-04-08T14:37:13;5.47;;;5.13;;
8088;SDS011;57635;49.194;12.104;2023-04-08T14:39:43;5.47;;;5.07;;
8088;SDS011;57635;49.194;12.104;2023-04-08T14:42:11;4.83;;;4.43;;
8088;SDS011;57635;49.194;12.104;2023-04-08T14:44:40;5.30;;;5.00;;
8088;SDS011;57635;49.194;12.104;2023-04-08T14:47:09;5.90;;;5.50;;
8088;SDS011;57635;49.194;12.104;2023-04-08T14:49:37;6.90;;;6.40;;
8088;SDS011;57635;49.194;12.104;2023-04-08T14:52:04;5.83;;;5.53;;
8088;SDS011;57635;49.194;12.104;2023-04-08T14:54:33;7.07;;;6.53;;
8088;SDS011;57635;49.194;12.104;2023-04-08T14:57:01;6.87;;;6.37;;
8088;SDS011;57635;49.194;12.104;2023-04-08T14:59:29;7.40;;;6.80;;